Time;durP1;ratioP1;P1;durP2;ratioP2;P2;SDS_P1;SDS_P2;PMS_P1;PMS_P2;Temp;Humidity;BMP_temperature;BMP_pressure;BME280_temperature;BME280_humidity;BME280_pressure;Samples;Min_cycle;Max_cycle;Signal;HPM_P1;HPM_P2
2021/05/23 00:02:06;;;;;;;0.93;0.70;;;20.90;52.20;;;;;;10536247;28;20223;-15
2021/05/23 00:07:29;;;;;;;1.17;0.83;;;20.90;52.20;;;;;;10538422;28;20214;-16
2021/05/23 00:12:52;;;;;;;0.80;0.70;;;20.90;52.30;;;;;;10506627;28;20212;-13
2021/05/23 00:18:14;;;;;;;0.93;0.63;;;20.80;52.30;;;;;;10496694;28;20295;-15
2021/05/23 00:23:37;;;;;;;1.00;0.80;;;20.80;52.40;;;;;;10507146;28;20215;-15
2021/05/23 00:28:58;;;;;;;1.00;0.80;;;20.90;52.50;;;;;;10531206;28;20245;-15
2021/05/23 00:34:20;;;;;;;1.40;0.83;;;20.80;52.40;;;;;;10538056;28;20210;-15
2021/05/23 00:39:42;;;;;;;1.23;0.87;;;20.90;52.30;;;;;;10536640;28;20663;-14
2021/05/23 00:45:05;;;;;;;1.97;1.10;;;20.90;52.40;;;;;;10537884;28;20191;-16
2021/05/23 00:50:27;;;;;;;1.77;1.00;;;20.90;52.30;;;;;;10537016;28;20204;-15
2021/05/23 00:55:49;;;;;;;1.63;0.77;;;20.90;52.20;;;;;;10510460;28;20208;-15
2021/05/23 01:01:30;;;;;;;1.10;0.83;;;20.80;52.50;;;;;;10535575;28;20223;-17
2021/05/23 01:06:52;;;;;;;1.43;1.00;;;20.80;52.50;;;;;;10527286;28;20193;-15
2021/05/23 01:12:47;;;;;;;1.60;0.87;;;20.80;52.40;;;;;;10533640;28;20215;-15
2021/05/23 01:18:15;;;;;;;1.17;0.83;;;20.90;52.30;;;;;;10536384;28;20207;-15
2021/05/23 01:23:41;;;;;;;1.30;1.00;;;20.90;52.20;;;;;;10535757;28;20226;-15
2021/05/23 01:29:08;;;;;;;1.10;0.90;;;20.90;52.10;;;;;;10534847;28;20204;-15
2021/05/23 01:34:30;;;;;;;1.33;0.80;;;20.90;52.40;;;;;;10533555;28;20291;-15
2021/05/23 01:39:52;;;;;;;1.43;0.90;;;20.90;52.40;;;;;;10530240;28;20208;-15
2021/05/23 01:45:16;;;;;;;1.13;0.70;;;20.80;52.40;;;;;;10534758;28;20192;-15
2021/05/23 01:50:38;;;;;;;0.97;0.80;;;20.90;52.10;;;;;;10534591;28;20667;-15
2021/05/23 01:56:00;;;;;;;0.67;0.67;;;20.90;52.30;;;;;;10519657;28;20889;-15
2021/05/23 02:01:25;;;;;;;0.97;0.77;;;20.90;52.10;;;;;;10536197;28;20218;-15
2021/05/23 02:06:46;;;;;;;1.40;0.70;;;20.90;52.20;;;;;;10535419;28;20180;-15
2021/05/23 02:12:08;;;;;;;1.80;0.90;;;20.80;52.20;;;;;;10535190;28;20247;-15
2021/05/23 02:17:34;;;;;;;1.43;0.67;;;20.80;52.40;;;;;;10545767;28;20214;-15
2021/05/23 02:22:58;;;;;;;1.23;0.80;;;20.90;52.40;;;;;;10334934;28;20241;-15
2021/05/23 02:28:20;;;;;;;1.50;0.70;;;20.80;52.20;;;;;;10327043;28;20279;-15
2021/05/23 02:33:43;;;;;;;1.30;1.00;;;20.80;52.50;;;;;;10328451;28;20625;-15
2021/05/23 02:39:05;;;;;;;1.30;0.90;;;20.80;52.50;;;;;;10328132;28;20218;-15
2021/05/23 02:44:26;;;;;;;1.70;1.17;;;20.90;52.10;;;;;;10417460;28;20202;-15
2021/05/23 02:49:49;;;;;;;1.17;0.80;;;21.00;52.10;;;;;;10535483;28;20227;-15
2021/05/23 02:55:12;;;;;;;0.80;0.60;;;20.90;52.10;;;;;;10541694;28;20216;-15
2021/05/23 03:00:34;;;;;;;1.53;1.03;;;20.90;52.20;;;;;;10540599;28;20207;-15
2021/05/23 03:05:57;;;;;;;1.50;1.10;;;20.80;52.30;;;;;;10538497;28;20624;-15
2021/05/23 03:11:19;;;;;;;1.30;0.80;;;20.80;52.40;;;;;;10537916;28;20211;-15
2021/05/23 03:16:41;;;;;;;1.33;1.00;;;20.80;52.30;;;;;;10540642;28;20583;-15
2021/05/23 03:22:05;;;;;;;1.67;1.00;;;20.80;52.30;;;;;;10532985;28;20223;-14
2021/05/23 03:27:27;;;;;;;2.07;0.80;;;20.80;52.30;;;;;;10537289;28;20242;-15
2021/05/23 03:32:49;;;;;;;1.07;0.90;;;20.80;52.40;;;;;;10526479;28;20286;-15
2021/05/23 03:38:11;;;;;;;1.20;0.83;;;20.90;52.10;;;;;;10540699;28;20745;-15
2021/05/23 03:43:33;;;;;;;1.30;1.00;;;20.90;52.00;;;;;;10496235;28;20215;-14
2021/05/23 03:48:54;;;;;;;2.17;1.33;;;20.90;52.10;;;;;;10553314;28;20217;-15
2021/05/23 03:54:17;;;;;;;1.87;1.00;;;20.90;52.20;;;;;;10580561;28;20191;-15
2021/05/23 03:59:38;;;;;;;1.07;0.93;;;20.80;52.30;;;;;;10581616;27;20215;-15
2021/05/23 04:05:00;;;;;;;2.33;1.03;;;20.80;52.30;;;;;;10323960;28;20203;-16
2021/05/23 04:10:27;;;;;;;2.43;1.03;;;20.70;52.50;;;;;;10536661;28;20211;-15
2021/05/23 04:15:49;;;;;;;3.07;1.30;;;20.80;52.40;;;;;;10537408;28;20208;-14
2021/05/23 04:21:10;;;;;;;1.07;0.80;;;20.80;52.30;;;;;;10537589;28;20228;-15
2021/05/23 04:26:33;;;;;;;1.53;0.90;;;20.80;52.20;;;;;;10538642;28;20598;-15
2021/05/23 04:31:54;;;;;;;0.83;0.80;;;20.80;52.10;;;;;;10514685;28;20216;-15
2021/05/23 04:37:16;;;;;;;2.03;1.00;;;20.80;52.30;;;;;;10474723;28;20219;-15
2021/05/23 04:42:39;;;;;;;2.10;1.03;;;20.90;52.10;;;;;;10452429;28;20215;-15
2021/05/23 04:48:00;;;;;;;2.03;0.90;;;20.90;52.00;;;;;;10463093;28;20200;-15
2021/05/23 04:53:22;;;;;;;1.60;1.10;;;20.90;52.10;;;;;;10491636;28;20216;-14
2021/05/23 04:58:44;;;;;;;0.90;0.70;;;20.80;52.10;;;;;;10494946;28;20212;-16
2021/05/23 05:04:06;;;;;;;1.30;0.90;;;20.80;52.10;;;;;;10358285;28;20203;-16
2021/05/23 05:09:27;;;;;;;1.33;0.90;;;20.90;52.10;;;;;;10493013;28;20227;-15
2021/05/23 05:14:50;;;;;;;2.00;0.97;;;20.80;52.20;;;;;;10399322;28;20687;-15
2021/05/23 05:20:12;;;;;;;1.10;0.83;;;20.80;52.10;;;;;;10323710;28;20231;-16
2021/05/23 05:25:33;;;;;;;1.57;1.00;;;20.90;52.00;;;;;;10327548;28;20191;-15
2021/05/23 05:30:56;;;;;;;1.47;0.97;;;20.80;52.30;;;;;;10304863;28;20247;-15
2021/05/23 05:36:17;;;;;;;1.20;0.90;;;20.80;52.30;;;;;;10325743;28;20306;-14
2021/05/23 05:41:39;;;;;;;1.90;0.93;;;20.80;52.30;;;;;;10409976;28;20227;-15
2021/05/23 05:47:01;;;;;;;1.20;0.70;;;20.90;52.00;;;;;;10535522;28;20200;-16
2021/05/23 05:52:23;;;;;;;1.90;1.00;;;20.90;52.00;;;;;;10329190;28;20223;-14
2021/05/23 05:57:45;;;;;;;2.63;1.03;;;20.90;52.00;;;;;;10447742;22;20593;-16
2021/05/23 06:03:07;;;;;;;1.47;0.70;;;20.80;52.20;;;;;;10533374;28;20200;-15
2021/05/23 06:08:29;;;;;;;1.70;0.80;;;20.80;52.00;;;;;;10528311;28;20290;-14
2021/05/23 06:13:50;;;;;;;2.40;0.80;;;20.80;52.00;;;;;;10493347;28;20595;-15
2021/05/23 06:19:13;;;;;;;1.73;0.83;;;20.80;52.20;;;;;;10466893;28;20254;-15
2021/05/23 06:24:34;;;;;;;1.77;0.80;;;20.80;52.10;;;;;;10541805;28;20200;-15
2021/05/23 06:29:56;;;;;;;1.07;0.80;;;20.80;52.00;;;;;;10542773;28;20211;-15
2021/05/23 06:35:18;;;;;;;1.30;0.80;;;20.70;52.20;;;;;;10542034;28;20208;-16
2021/05/23 06:40:40;;;;;;;1.83;1.00;;;20.70;52.30;;;;;;10519012;28;20242;-15
2021/05/23 06:46:01;;;;;;;1.20;0.80;;;20.70;52.30;;;;;;10540320;28;20212;-15
2021/05/23 06:51:24;;;;;;;1.00;0.60;;;20.60;52.50;;;;;;10540671;28;20575;-15
2021/05/23 06:56:45;;;;;;;1.63;1.00;;;20.70;52.40;;;;;;10530207;28;20219;-15
2021/05/23 07:02:07;;;;;;;0.87;0.80;;;20.70;52.30;;;;;;10543053;28;20203;-15
2021/05/23 07:07:31;;;;;;;1.90;0.90;;;20.70;52.50;;;;;;10541311;28;20211;-15
2021/05/23 07:12:53;;;;;;;1.43;0.60;;;20.70;52.90;;;;;;10541297;28;20210;-15
2021/05/23 07:18:14;;;;;;;1.43;0.80;;;20.70;52.40;;;;;;10539176;28;20642;-15
2021/05/23 07:23:37;;;;;;;2.13;0.97;;;20.80;52.20;;;;;;10537641;28;20714;-15
2021/05/23 07:28:58;;;;;;;2.70;0.80;;;20.80;51.90;;;;;;10539756;28;20276;-15
2021/05/23 07:34:20;;;;;;;1.63;0.70;;;20.70;52.10;;;;;;10507773;28;20580;-15
2021/05/23 07:39:44;;;;;;;2.33;0.90;;;20.70;52.10;;;;;;10523670;28;20215;-16
2021/05/23 07:45:07;;;;;;;2.30;0.67;;;20.80;52.10;;;;;;10534189;28;20747;-15
2021/05/23 07:50:29;;;;;;;2.00;0.83;;;20.70;52.10;;;;;;10537357;28;20206;-15
2021/05/23 07:55:51;;;;;;;1.00;0.67;;;20.70;52.10;;;;;;10538739;28;20224;-16
2021/05/23 08:01:13;;;;;;;1.20;0.77;;;20.80;52.20;;;;;;10538719;28;20188;-15
2021/05/23 08:06:35;;;;;;;1.17;0.60;;;20.80;52.00;;;;;;10537750;28;20222;-15
2021/05/23 08:11:57;;;;;;;1.43;0.70;;;20.80;52.10;;;;;;10537617;28;20207;-15
2021/05/23 08:17:19;;;;;;;1.53;0.70;;;20.80;52.30;;;;;;10535375;28;20906;-15
2021/05/23 08:22:41;;;;;;;1.20;0.60;;;20.80;51.90;;;;;;10570592;28;20197;-15
2021/05/23 08:28:04;;;;;;;1.37;0.77;;;20.80;52.00;;;;;;10499620;28;20741;-15
2021/05/23 08:33:26;;;;;;;0.97;0.70;;;20.90;51.60;;;;;;10537179;28;20200;-15
2021/05/23 08:38:48;;;;;;;3.07;0.90;;;20.90;51.50;;;;;;10537549;28;20227;-15
2021/05/23 08:44:10;;;;;;;1.33;0.70;;;20.90;51.50;;;;;;10534733;28;20196;-14
2021/05/23 08:49:32;;;;;;;1.83;0.80;;;20.90;51.50;;;;;;10535979;28;20261;-15
2021/05/23 08:54:53;;;;;;;2.47;1.00;;;20.90;51.70;;;;;;10534206;28;20691;-15
2021/05/23 09:00:17;;;;;;;1.73;0.60;;;21.00;51.50;;;;;;10535581;28;20608;-15
2021/05/23 09:05:41;;;;;;;2.07;0.60;;;21.00;51.60;;;;;;10531582;28;20265;-15
2021/05/23 09:11:04;;;;;;;3.43;0.80;;;21.10;51.30;;;;;;10534371;28;20822;-15
2021/05/23 09:16:35;;;;;;;9.13;1.07;;;21.20;51.50;;;;;;10532751;28;20227;-15
2021/05/23 09:22:07;;;;;;;4.77;1.00;;;21.20;51.20;;;;;;10534796;28;20196;-15
2021/05/23 09:27:31;;;;;;;8.40;1.13;;;21.20;51.00;;;;;;10539403;28;20574;-15
2021/05/23 09:32:56;;;;;;;6.13;0.73;;;21.50;50.80;;;;;;10542492;28;20199;-15
2021/05/23 09:38:18;;;;;;;12.47;1.20;;;21.60;50.30;;;;;;10533375;28;20220;-15
2021/05/23 09:43:40;;;;;;;5.20;1.10;;;22.00;49.70;;;;;;10522754;28;20698;-15
2021/05/23 09:49:03;;;;;;;8.80;1.43;;;22.10;49.40;;;;;;10534729;28;20223;-15
2021/05/23 09:54:26;;;;;;;9.87;1.43;;;22.00;49.50;;;;;;10534463;28;20191;-15
2021/05/23 09:59:58;;;;;;;6.40;1.00;;;22.10;49.20;;;;;;10531355;28;20573;-15
2021/05/23 10:05:21;;;;;;;109.43;9.40;;;22.40;49.20;;;;;;10515031;28;20504;-15
2021/05/23 10:10:43;;;;;;;37.13;4.07;;;22.40;48.90;;;;;;10541980;28;20232;-15
2021/05/23 10:16:05;;;;;;;20.80;3.40;;;22.20;49.30;;;;;;10556371;28;20312;-15
2021/05/23 10:21:28;;;;;;;20.20;3.03;;;22.10;49.80;;;;;;10554051;28;20195;-15
2021/05/23 10:26:54;;;;;;;20.60;2.87;;;22.10;49.90;;;;;;10552741;28;20204;-15
2021/05/23 10:32:17;;;;;;;14.00;2.17;;;22.00;50.00;;;;;;10552815;28;20266;-15
2021/05/23 10:37:41;;;;;;;19.63;2.30;;;22.00;50.20;;;;;;10546058;28;20265;-15
2021/05/23 10:43:03;;;;;;;10.30;1.70;;;22.00;50.40;;;;;;10551850;28;20224;-15
2021/05/23 10:48:25;;;;;;;15.67;2.57;;;22.00;50.40;;;;;;10549231;28;20204;-15
2021/05/23 10:53:47;;;;;;;9.43;1.67;;;22.00;50.50;;;;;;10564466;28;20621;-15
2021/05/23 10:59:09;;;;;;;12.03;1.80;;;22.00;50.60;;;;;;10582216;28;20579;-15
2021/05/23 11:04:39;;;;;;;9.00;1.87;;;21.90;50.70;;;;;;10536654;28;20199;-15
2021/05/23 11:10:12;;;;;;;9.63;1.70;;;21.70;50.90;;;;;;10560968;28;20222;-15
2021/05/23 11:15:42;;;;;;;6.27;1.10;;;21.60;51.30;;;;;;10513539;28;20225;-15
2021/05/23 11:21:06;;;;;;;5.00;1.47;;;21.60;51.30;;;;;;10556199;28;20248;-15
2021/05/23 11:26:29;;;;;;;8.23;1.23;;;21.60;51.40;;;;;;10532639;28;20216;-15
2021/05/23 11:31:51;;;;;;;6.67;1.40;;;21.60;51.60;;;;;;10498298;28;20196;-15
2021/05/23 11:37:12;;;;;;;6.53;1.57;;;21.60;51.20;;;;;;10519323;28;20242;-14
2021/05/23 11:42:41;;;;;;;6.37;1.50;;;21.60;51.00;;;;;;10523829;28;20211;-16
2021/05/23 11:48:06;;;;;;;5.03;1.53;;;21.70;51.00;;;;;;10543153;28;20211;-15
2021/05/23 11:53:42;;;;;;;9.57;1.60;;;21.70;51.00;;;;;;10563188;28;20278;-15
2021/05/23 11:59:06;;;;;;;9.67;1.80;;;21.70;50.90;;;;;;10533654;28;20220;-15
2021/05/23 12:04:28;;;;;;;10.87;1.97;;;21.50;51.50;;;;;;10533849;22;20228;-17
2021/05/23 12:09:50;;;;;;;4.30;2.17;;;21.50;51.50;;;;;;10490161;28;20254;-15
2021/05/23 12:15:19;;;;;;;4.73;1.63;;;21.40;51.80;;;;;;10461693;28;20713;-15
2021/05/23 12:20:47;;;;;;;6.30;1.77;;;21.40;51.80;;;;;;10447394;28;20197;-15
2021/05/23 12:26:11;;;;;;;8.37;2.00;;;21.30;52.10;;;;;;10452473;28;20213;-16
2021/05/23 12:31:35;;;;;;;5.40;1.70;;;21.10;52.50;;;;;;10455429;28;20196;-15
2021/05/23 12:36:59;;;;;;;4.37;1.47;;;21.20;52.40;;;;;;10454554;28;20216;-15
2021/05/23 12:42:31;;;;;;;4.53;1.47;;;21.30;51.90;;;;;;10454210;28;20205;-15
2021/05/23 12:47:55;;;;;;;6.77;1.70;;;21.40;51.90;;;;;;10457054;28;20197;-15
2021/05/23 12:53:21;;;;;;;5.23;1.70;;;21.30;51.70;;;;;;10454412;28;20220;-15
2021/05/23 12:58:45;;;;;;;4.23;1.50;;;21.30;52.00;;;;;;10454900;28;20782;-15
2021/05/23 13:04:12;;;;;;;4.43;1.57;;;21.20;52.10;;;;;;10494486;28;20227;-15
2021/05/23 13:09:38;;;;;;;4.40;1.80;;;21.20;52.20;;;;;;10494659;28;20250;-16
2021/05/23 13:15:02;;;;;;;3.70;1.20;;;21.20;52.30;;;;;;10458007;28;20239;-17
2021/05/23 13:20:32;;;;;;;5.20;1.80;;;21.10;52.60;;;;;;10452691;28;20276;-15
2021/05/23 13:25:54;;;;;;;5.47;1.57;;;21.00;52.70;;;;;;10453100;28;20224;-15
2021/05/23 13:31:16;;;;;;;4.20;1.63;;;21.30;52.40;;;;;;10452896;28;20254;-15
2021/05/23 13:36:40;;;;;;;3.53;1.57;;;21.30;52.30;;;;;;10452842;28;20217;-15
2021/05/23 13:42:01;;;;;;;2.50;1.20;;;21.20;52.40;;;;;;10451941;28;20692;-15
2021/05/23 13:47:23;;;;;;;3.73;1.60;;;21.10;52.50;;;;;;10478002;28;20368;-15
2021/05/23 13:52:48;;;;;;;3.97;1.60;;;21.20;52.40;;;;;;10492709;28;20601;-15
2021/05/23 13:58:10;;;;;;;1.67;0.93;;;21.10;52.50;;;;;;10492964;28;20270;-13
2021/05/23 14:03:32;;;;;;;4.50;1.27;;;21.10;52.70;;;;;;10492437;28;20290;-15
2021/05/23 14:08:55;;;;;;;3.00;1.30;;;21.00;52.90;;;;;;10461596;28;20196;-15
2021/05/23 14:14:17;;;;;;;2.27;1.10;;;20.90;53.20;;;;;;10454001;28;20212;-15
2021/05/23 14:19:39;;;;;;;2.57;1.33;;;20.90;53.20;;;;;;10451134;28;20224;-16
2021/05/23 14:25:01;;;;;;;2.43;1.20;;;21.10;52.80;;;;;;10450289;28;20256;-15
2021/05/23 14:30:23;;;;;;;1.77;1.10;;;21.20;52.50;;;;;;10458482;28;20190;-15
2021/05/23 14:35:45;;;;;;;2.53;1.17;;;21.30;52.30;;;;;;10458054;28;20220;-15
2021/05/23 14:41:08;;;;;;;2.87;1.13;;;21.10;52.60;;;;;;10458943;28;20204;-15
2021/05/23 14:46:30;;;;;;;2.00;1.20;;;21.10;52.50;;;;;;10458372;28;20259;-15
2021/05/23 14:51:51;;;;;;;2.30;1.00;;;21.10;52.50;;;;;;10458852;28;20193;-15
2021/05/23 14:57:15;;;;;;;1.47;1.00;;;21.10;52.70;;;;;;10499394;28;20212;-15
2021/05/23 15:02:36;;;;;;;1.63;0.90;;;21.10;52.70;;;;;;10499599;28;20689;-15
2021/05/23 15:07:58;;;;;;;1.53;1.13;;;20.90;53.00;;;;;;10498990;28;20189;-15
2021/05/23 15:13:21;;;;;;;1.60;1.03;;;21.00;52.90;;;;;;10483785;28;20213;-15
2021/05/23 15:18:42;;;;;;;2.17;1.20;;;21.10;52.70;;;;;;10456425;28;20228;-15
2021/05/23 15:24:04;;;;;;;1.70;0.90;;;21.00;52.70;;;;;;10447207;28;20271;-15
2021/05/23 15:35:08;;;;;;;3.20;1.20;;;20.90;52.90;;;;;;10444356;28;20225;-16
2021/05/23 15:40:30;;;;;;;2.47;1.43;;;20.80;53.20;;;;;;10456635;28;20197;-15
2021/05/23 15:45:52;;;;;;;1.70;1.00;;;21.00;53.10;;;;;;10455020;28;20217;-15
2021/05/23 15:51:14;;;;;;;1.60;0.90;;;21.10;52.50;;;;;;10456365;28;20224;-15
2021/05/23 15:56:38;;;;;;;1.53;0.97;;;21.20;52.50;;;;;;10458425;28;20291;-15
2021/05/23 16:02:00;;;;;;;1.17;0.87;;;21.10;52.50;;;;;;10455331;28;20579;-15
2021/05/23 16:07:22;;;;;;;2.23;1.10;;;21.10;52.30;;;;;;10455962;28;20197;-15
2021/05/23 16:12:43;;;;;;;2.57;1.10;;;21.10;52.40;;;;;;10454881;28;20216;-15
2021/05/23 16:18:06;;;;;;;1.63;1.10;;;21.10;52.60;;;;;;10455289;28;20689;-16
2021/05/23 16:23:28;;;;;;;1.13;0.97;;;21.00;52.60;;;;;;10454618;28;20637;-15
2021/05/23 16:28:51;;;;;;;1.70;0.80;;;21.00;52.70;;;;;;10454286;28;20196;-15
2021/05/23 16:34:13;;;;;;;1.77;1.03;;;21.00;53.00;;;;;;10481412;28;20696;-15
2021/05/23 16:39:35;;;;;;;1.93;0.90;;;21.20;52.70;;;;;;10488541;28;20233;-15
2021/05/23 16:44:57;;;;;;;2.40;0.87;;;21.10;52.60;;;;;;10452701;28;20217;-16
2021/05/23 16:50:20;;;;;;;1.70;0.90;;;21.10;52.50;;;;;;10470466;28;20554;-15
2021/05/23 16:55:42;;;;;;;3.37;0.90;;;21.10;52.50;;;;;;10468347;28;20224;-19
2021/05/23 17:01:03;;;;;;;1.83;1.27;;;21.20;52.30;;;;;;10485604;28;20196;-15
2021/05/23 17:06:26;;;;;;;1.70;1.10;;;21.10;52.00;;;;;;10493205;28;20620;-15
2021/05/23 17:11:47;;;;;;;1.47;0.90;;;21.10;52.10;;;;;;10466019;28;20197;-15
2021/05/23 17:17:09;;;;;;;2.43;1.10;;;21.10;51.90;;;;;;10452085;28;20209;-15
2021/05/23 17:22:32;;;;;;;6.87;1.30;;;21.10;51.90;;;;;;10450847;28;20213;-15
2021/05/23 17:27:53;;;;;;;5.23;1.27;;;21.20;52.10;;;;;;10452561;28;20204;-15
2021/05/23 17:33:15;;;;;;;3.23;1.13;;;21.30;51.10;;;;;;10451567;28;20224;-15
2021/05/23 17:38:39;;;;;;;4.17;1.10;;;21.30;50.90;;;;;;10452298;28;20708;-15
2021/05/23 17:44:00;;;;;;;4.57;1.10;;;21.40;51.30;;;;;;10447628;28;20227;-15
2021/05/23 17:49:22;;;;;;;3.77;1.30;;;21.50;51.00;;;;;;10483246;28;20191;-15
2021/05/23 17:54:44;;;;;;;2.40;1.23;;;21.40;51.10;;;;;;10484178;28;20279;-15
2021/05/23 18:00:09;;;;;;;6.83;1.60;;;21.40;51.20;;;;;;10477651;28;20612;-15
2021/05/23 18:05:30;;;;;;;5.10;1.60;;;21.40;51.40;;;;;;10519073;22;20216;-16
2021/05/23 18:10:53;;;;;;;6.37;1.90;;;21.40;51.30;;;;;;10501094;28;20210;-16
2021/05/23 18:16:14;;;;;;;4.43;1.37;;;21.50;51.20;;;;;;10500260;28;20640;-16
2021/05/23 18:21:38;;;;;;;7.93;1.50;;;21.50;51.30;;;;;;10500181;28;20673;-15
2021/05/23 18:27:00;;;;;;;2.93;1.30;;;21.50;51.20;;;;;;10500655;28;20220;-15
2021/05/23 18:32:23;;;;;;;3.30;1.40;;;21.60;51.20;;;;;;10502836;28;20204;-15
2021/05/23 18:37:45;;;;;;;4.60;1.17;;;22.20;50.10;;;;;;10500785;28;20640;-15
2021/05/23 18:43:09;;;;;;;5.20;1.40;;;22.70;48.90;;;;;;10505207;28;20220;-15
2021/05/23 18:48:30;;;;;;;3.60;1.33;;;23.00;48.20;;;;;;10527788;28;20192;-15
2021/05/23 18:53:53;;;;;;;3.10;1.37;;;23.10;47.80;;;;;;10515574;28;20282;-15
2021/05/23 18:59:15;;;;;;;4.90;1.40;;;23.20;47.40;;;;;;10492113;28;20299;-15
2021/05/23 19:04:37;;;;;;;5.00;1.40;;;23.70;46.80;;;;;;10490979;28;20605;-15
2021/05/23 19:09:59;;;;;;;3.23;1.60;;;23.60;46.90;;;;;;10492940;28;20196;-15
2021/05/23 19:15:22;;;;;;;4.87;1.60;;;23.10;47.80;;;;;;10371967;28;20232;-15
2021/05/23 19:20:43;;;;;;;2.40;1.03;;;22.80;49.20;;;;;;10329168;28;20195;-15
2021/05/23 19:26:05;;;;;;;2.07;1.20;;;22.50;49.50;;;;;;10328730;28;20219;-15
2021/05/23 19:31:27;;;;;;;3.47;1.30;;;22.40;49.90;;;;;;10329556;28;20210;-15
2021/05/23 19:36:49;;;;;;;2.30;1.00;;;22.30;50.20;;;;;;10327516;28;20222;-15
2021/05/23 19:42:10;;;;;;;3.43;1.10;;;22.30;50.20;;;;;;10355907;28;20199;-14
2021/05/23 19:47:33;;;;;;;3.23;1.27;;;22.20;50.40;;;;;;10369624;28;20218;-15
2021/05/23 19:52:55;;;;;;;2.43;1.00;;;22.20;50.70;;;;;;10401797;28;20190;-15
2021/05/23 19:58:17;;;;;;;2.63;0.90;;;22.20;50.90;;;;;;10328520;28;20223;-15
2021/05/23 20:03:39;;;;;;;2.03;1.40;;;22.20;51.20;;;;;;10357107;28;20763;-15
2021/05/23 20:09:02;;;;;;;1.87;1.07;;;22.10;50.90;;;;;;10373439;28;20249;-16
2021/05/23 20:14:23;;;;;;;4.03;1.30;;;22.00;51.30;;;;;;10368551;28;20222;-16
2021/05/23 20:19:46;;;;;;;5.17;1.53;;;22.00;51.30;;;;;;10373567;28;20717;-15
2021/05/23 20:25:10;;;;;;;4.40;1.57;;;21.90;50.90;;;;;;10368166;28;20215;-15
2021/05/23 20:30:32;;;;;;;2.63;1.37;;;21.70;51.00;;;;;;10372257;28;20202;-15
2021/05/23 20:35:55;;;;;;;2.20;1.10;;;21.60;51.40;;;;;;10371002;28;20229;-15
2021/05/23 20:41:16;;;;;;;2.27;1.20;;;21.60;51.20;;;;;;10372090;28;20206;-15
2021/05/23 20:46:38;;;;;;;3.23;1.00;;;21.60;51.20;;;;;;10369220;28;20586;-15
2021/05/23 20:52:01;;;;;;;4.27;1.23;;;21.60;51.10;;;;;;10372346;28;20205;-16
2021/05/23 20:57:22;;;;;;;4.03;1.10;;;21.60;51.30;;;;;;10372151;28;20595;-15
2021/05/23 21:02:45;;;;;;;1.73;0.90;;;21.60;51.20;;;;;;10370477;28;20257;-15
2021/05/23 21:08:08;;;;;;;4.40;1.30;;;21.60;51.10;;;;;;10371455;28;20203;-15
2021/05/23 21:13:29;;;;;;;1.90;1.03;;;21.60;51.20;;;;;;10371079;28;20246;-15
2021/05/23 21:18:51;;;;;;;2.23;1.00;;;21.60;51.40;;;;;;10371510;28;20269;-15
2021/05/23 21:24:14;;;;;;;1.77;0.80;;;21.50;51.40;;;;;;10371236;28;20225;-15
2021/05/23 21:29:35;;;;;;;2.00;1.00;;;21.50;51.40;;;;;;10370841;28;20198;-15
2021/05/23 21:34:57;;;;;;;1.30;0.80;;;21.50;51.30;;;;;;10370366;28;20229;-15
2021/05/23 21:40:20;;;;;;;1.63;0.97;;;21.50;51.40;;;;;;10364746;28;20219;-15
2021/05/23 21:45:42;;;;;;;3.17;1.00;;;21.40;51.50;;;;;;10369400;28;20222;-15
2021/05/23 21:51:05;;;;;;;1.17;0.97;;;21.40;51.60;;;;;;10370892;28;20198;-15
2021/05/23 21:56:28;;;;;;;1.13;1.00;;;21.40;51.70;;;;;;10369498;28;20222;-15
2021/05/23 22:01:50;;;;;;;2.07;1.10;;;21.50;51.40;;;;;;10377685;28;20236;-15
2021/05/23 22:07:12;;;;;;;2.70;0.90;;;21.40;51.40;;;;;;10410639;28;20272;-15
2021/05/23 22:12:34;;;;;;;1.30;0.90;;;21.40;51.60;;;;;;10374538;28;20205;-15
2021/05/23 22:17:56;;;;;;;3.60;0.93;;;21.40;52.10;;;;;;10369713;28;20564;-15
2021/05/23 22:23:18;;;;;;;1.00;0.70;;;21.40;51.60;;;;;;10369877;28;20211;-15
2021/05/23 22:28:41;;;;;;;0.93;0.83;;;21.40;51.50;;;;;;10369726;28;20697;-15
2021/05/23 22:34:03;;;;;;;1.07;0.87;;;21.40;51.60;;;;;;10369031;28;20721;-15
2021/05/23 22:39:25;;;;;;;1.87;0.90;;;21.40;51.70;;;;;;10365404;28;20207;-15
2021/05/23 22:44:47;;;;;;;2.23;1.10;;;21.30;51.70;;;;;;10327581;28;20215;-15
2021/05/23 22:50:13;;;;;;;1.43;0.90;;;21.30;51.70;;;;;;10334266;28;20195;-15
2021/05/23 22:55:35;;;;;;;1.07;0.90;;;21.30;51.80;;;;;;10340666;28;20227;-15
2021/05/23 23:01:02;;;;;;;1.50;0.90;;;21.30;51.70;;;;;;10335754;28;20222;-15
2021/05/23 23:06:24;;;;;;;2.03;0.90;;;21.30;51.90;;;;;;10335764;28;20700;-15
2021/05/23 23:11:45;;;;;;;1.10;0.70;;;21.30;51.90;;;;;;10335887;28;20206;-15
2021/05/23 23:17:09;;;;;;;1.70;1.10;;;21.30;51.90;;;;;;10335053;28;20222;-15
2021/05/23 23:22:30;;;;;;;1.00;0.70;;;21.30;51.90;;;;;;10335045;28;20206;-15
2021/05/23 23:27:52;;;;;;;1.40;0.90;;;21.30;51.80;;;;;;10335423;28;20202;-15
2021/05/23 23:33:15;;;;;;;1.00;0.73;;;21.30;51.80;;;;;;10334312;28;20275;-15
2021/05/23 23:38:39;;;;;;;1.03;0.80;;;21.30;51.80;;;;;;10334273;28;20222;-15
2021/05/23 23:44:01;;;;;;;1.27;0.90;;;21.30;51.80;;;;;;10370849;28;20232;-15
2021/05/23 23:49:23;;;;;;;1.60;0.90;;;21.30;51.90;;;;;;10375170;28;20198;-15
2021/05/23 23:54:44;;;;;;;1.53;0.80;;;21.30;51.70;;;;;;10374501;28;20215;-15
